createdAt,value
2023-05-20T00:01:53.511Z,64.89
2023-05-20T00:04:20.918Z,64.50
2023-05-20T00:06:48.447Z,64.44
2023-05-20T00:09:17.301Z,63.39
2023-05-20T00:11:46.251Z,64.26
2023-05-20T00:14:13.480Z,64.54
2023-05-20T00:16:41.948Z,64.00
2023-05-20T00:19:09.452Z,64.18
2023-05-20T00:21:36.853Z,64.16
2023-05-20T00:24:04.229Z,64.25
2023-05-20T00:26:31.482Z,64.41
2023-05-20T00:28:59.241Z,64.44
2023-05-20T00:31:26.595Z,63.71
2023-05-20T00:33:53.880Z,63.79
2023-05-20T00:36:21.210Z,63.84
2023-05-20T00:38:48.585Z,63.43
2023-05-20T00:41:15.771Z,63.41
2023-05-20T00:43:43.112Z,62.73
2023-05-20T00:46:10.578Z,64.29
2023-05-20T00:48:41.678Z,63.48
2023-05-20T00:51:11.074Z,63.59
2023-05-20T00:53:38.783Z,63.26
2023-05-20T00:56:06.782Z,63.03
2023-05-20T00:58:36.708Z,64.37
2023-05-20T01:01:06.158Z,63.75
2023-05-20T01:03:33.857Z,63.98
2023-05-20T01:06:02.859Z,63.06
2023-05-20T01:08:30.289Z,63.81
2023-05-20T01:11:04.793Z,63.34
2023-05-20T01:13:43.928Z,63.20
2023-05-20T01:16:12.036Z,63.50
2023-05-20T01:18:41.064Z,63.65
2023-05-20T01:21:11.737Z,63.30
2023-05-20T01:23:40.562Z,63.93
2023-05-20T01:26:09.278Z,64.34
2023-05-20T01:28:38.743Z,64.13
2023-05-20T01:31:12.661Z,64.37
2023-05-20T01:33:41.227Z,64.11
2023-05-20T01:36:10.038Z,63.66
2023-05-20T01:38:40.196Z,64.45
2023-05-20T01:41:07.495Z,65.33
2023-05-20T01:43:35.257Z,65.05
2023-05-20T01:46:06.258Z,65.60
2023-05-20T01:48:34.670Z,65.27
2023-05-20T01:51:02.045Z,65.32
2023-05-20T01:53:29.623Z,65.29
2023-05-20T01:55:56.840Z,65.82
2023-05-20T01:58:24.189Z,66.25
2023-05-20T02:00:51.700Z,66.89
2023-05-20T02:03:19.265Z,66.23
2023-05-20T02:05:46.790Z,65.90
2023-05-20T02:08:14.085Z,65.68
2023-05-20T02:10:41.507Z,65.96
2023-05-20T02:13:09.497Z,67.09
2023-05-20T02:15:41.619Z,66.83
2023-05-20T02:18:09.055Z,66.23
2023-05-20T02:20:37.224Z,66.45
2023-05-20T02:23:07.580Z,67.86
2023-05-20T02:25:35.217Z,67.99
2023-05-20T02:28:05.867Z,67.85
2023-05-20T02:30:33.122Z,68.63
2023-05-20T02:33:00.383Z,68.60
2023-05-20T02:35:27.758Z,68.36
2023-05-20T02:37:55.095Z,67.89
2023-05-20T02:40:22.992Z,68.77
2023-05-20T02:42:50.656Z,69.14
2023-05-20T02:45:17.950Z,68.36
2023-05-20T02:47:46.252Z,68.67
2023-05-20T02:50:13.709Z,69.90
2023-05-20T02:52:42.528Z,70.43
2023-05-20T02:55:10.185Z,69.46
2023-05-20T02:57:41.045Z,69.74
2023-05-20T03:00:13.367Z,70.23
2023-05-20T03:02:40.813Z,70.32
2023-05-20T03:05:09.401Z,69.99
2023-05-20T03:07:36.835Z,69.99
2023-05-20T03:10:08.045Z,69.71
2023-05-20T03:12:35.333Z,69.86
2023-05-20T03:15:03.839Z,70.79
2023-05-20T03:17:31.345Z,70.87
2023-05-20T03:19:58.847Z,71.09
2023-05-20T03:22:26.239Z,71.20
2023-05-20T03:24:53.641Z,71.92
2023-05-20T03:27:21.476Z,71.28
2023-05-20T03:29:48.940Z,71.02
2023-05-20T03:32:17.354Z,70.13
2023-05-20T03:34:44.664Z,70.15
2023-05-20T03:37:12.146Z,69.89
2023-05-20T03:39:39.534Z,70.19
2023-05-20T03:42:07.826Z,69.69
2023-05-20T03:44:36.005Z,70.13
2023-05-20T03:47:03.455Z,69.47
2023-05-20T03:49:31.653Z,70.12
2023-05-20T03:51:59.121Z,70.68
2023-05-20T03:54:26.704Z,70.35
2023-05-20T03:56:54.843Z,70.14
2023-05-20T03:59:22.427Z,70.11
2023-05-20T04:01:49.810Z,71.64
2023-05-20T04:04:17.292Z,71.66
2023-05-20T04:06:44.637Z,71.13
2023-05-20T04:09:12.607Z,71.48
2023-05-20T04:11:39.925Z,70.89
2023-05-20T04:14:07.422Z,70.05
2023-05-20T04:16:35.089Z,69.62
2023-05-20T04:19:02.814Z,68.89
2023-05-20T04:21:31.452Z,69.88
2023-05-20T04:23:58.866Z,70.26
2023-05-20T04:26:26.254Z,69.77
2023-05-20T04:28:53.623Z,69.96
2023-05-20T04:31:26.695Z,69.81
2023-05-20T04:33:54.582Z,69.71
2023-05-20T04:36:22.948Z,69.21
2023-05-20T04:38:50.774Z,68.38
2023-05-20T04:41:18.542Z,69.23
2023-05-20T04:43:45.995Z,70.03
2023-05-20T04:46:14.202Z,70.24
2023-05-20T04:48:43.982Z,71.22
2023-05-20T04:51:13.711Z,70.94
2023-05-20T04:53:40.998Z,71.86
2023-05-20T04:56:08.250Z,72.43
2023-05-20T04:58:35.571Z,72.65
2023-05-20T05:01:03.348Z,72.42
2023-05-20T05:03:31.300Z,73.14
2023-05-20T05:05:59.213Z,72.33
2023-05-20T05:08:27.142Z,72.21
2023-05-20T05:10:54.720Z,71.71
2023-05-20T05:13:22.090Z,72.32
2023-05-20T05:15:49.515Z,72.83
2023-05-20T05:18:18.659Z,72.32
2023-05-20T05:20:46.503Z,72.37
2023-05-20T05:23:14.218Z,71.84
2023-05-20T05:25:41.992Z,71.85
2023-05-20T05:28:09.346Z,71.89
2023-05-20T05:30:37.652Z,71.65
2023-05-20T05:33:04.962Z,70.70
2023-05-20T05:35:32.906Z,69.99
2023-05-20T05:38:00.564Z,70.46
2023-05-20T05:40:27.965Z,71.41
2023-05-20T05:42:55.441Z,71.28
2023-05-20T05:45:22.855Z,71.14
2023-05-20T05:47:50.177Z,70.74
2023-05-20T05:50:17.630Z,70.83
2023-05-20T05:52:44.923Z,70.77
2023-05-20T05:55:12.906Z,71.10
2023-05-20T05:57:40.281Z,70.06
2023-05-20T06:00:08.812Z,69.99
2023-05-20T06:02:46.204Z,71.16
2023-05-20T06:05:20.507Z,70.17
2023-05-20T06:07:48.073Z,70.04
2023-05-20T06:10:15.575Z,70.41
2023-05-20T06:12:42.803Z,70.21
2023-05-20T06:15:10.744Z,69.88
2023-05-20T06:17:38.769Z,69.12
2023-05-20T06:20:07.025Z,68.93
2023-05-20T06:22:35.077Z,69.19
2023-05-20T06:25:02.601Z,69.03
2023-05-20T06:27:31.417Z,68.65
2023-05-20T06:29:58.689Z,67.80
2023-05-20T06:32:25.928Z,67.59
2023-05-20T06:34:53.844Z,67.71
2023-05-20T06:37:24.326Z,66.96
2023-05-20T06:39:53.938Z,68.31
2023-05-20T06:42:21.797Z,70.14
2023-05-20T06:45:03.077Z,69.98
2023-05-20T06:47:49.950Z,69.37
2023-05-20T06:50:17.289Z,67.75
2023-05-20T06:52:45.245Z,68.51
2023-05-20T06:55:13.635Z,68.99
2023-05-20T06:57:41.117Z,68.97
2023-05-20T07:00:09.479Z,68.23
2023-05-20T07:02:42.528Z,67.72
2023-05-20T07:05:12.040Z,67.40
2023-05-20T07:07:39.908Z,65.98
2023-05-20T07:10:08.050Z,68.03
2023-05-20T07:12:36.789Z,68.66
2023-05-20T07:15:05.070Z,67.76
2023-05-20T07:17:33.056Z,66.24
2023-05-20T07:20:00.464Z,66.12
2023-05-20T07:22:27.929Z,64.91
2023-05-20T07:25:09.170Z,62.99
2023-05-20T07:27:37.605Z,64.62
2023-05-20T07:30:05.846Z,64.83
2023-05-20T07:32:34.281Z,65.66
2023-05-20T07:35:01.812Z,65.77
2023-05-20T07:37:29.156Z,66.50
2023-05-20T07:39:56.663Z,65.48
2023-05-20T07:42:24.056Z,64.59
2023-05-20T07:44:56.030Z,65.18
2023-05-20T07:47:23.527Z,65.24
2023-05-20T07:49:50.850Z,64.85
2023-05-20T07:52:18.205Z,64.19
2023-05-20T07:54:45.998Z,65.33
2023-05-20T07:57:13.453Z,64.15
2023-05-20T07:59:41.511Z,62.23
2023-05-20T08:02:08.950Z,62.83
2023-05-20T08:04:37.020Z,63.76
2023-05-20T08:07:04.744Z,62.30
2023-05-20T08:09:41.662Z,61.07
2023-05-20T08:12:09.087Z,62.25
2023-05-20T08:14:36.441Z,62.00
2023-05-20T08:17:04.210Z,60.66
2023-05-20T08:19:31.892Z,58.84
2023-05-20T08:21:59.244Z,59.69
2023-05-20T08:24:27.120Z,59.11
2023-05-20T08:26:55.175Z,59.23
2023-05-20T08:29:25.043Z,58.15
2023-05-20T08:31:52.534Z,58.82
2023-05-20T08:34:21.070Z,58.39
2023-05-20T08:36:48.325Z,58.70
2023-05-20T08:39:15.872Z,57.57
2023-05-20T08:41:43.448Z,57.45
2023-05-20T08:44:11.840Z,57.97
2023-05-20T08:46:40.897Z,57.79
2023-05-20T08:49:08.908Z,57.31
2023-05-20T08:51:36.736Z,57.08
2023-05-20T08:54:04.175Z,56.80
2023-05-20T08:56:32.857Z,56.45
2023-05-20T08:59:00.169Z,57.04
2023-05-20T09:01:27.536Z,55.63
2023-05-20T09:03:54.825Z,56.29
2023-05-20T09:06:22.249Z,55.35
2023-05-20T09:08:50.786Z,54.86
2023-05-20T09:11:18.349Z,54.67
2023-05-20T09:13:45.697Z,54.92
2023-05-20T09:16:13.594Z,54.79
2023-05-20T09:18:41.733Z,54.66
2023-05-20T09:21:10.324Z,54.26
2023-05-20T09:23:38.486Z,54.29
2023-05-20T09:26:06.165Z,54.18
2023-05-20T09:28:33.836Z,53.69
2023-05-20T09:31:01.558Z,53.81
2023-05-20T09:33:30.371Z,53.12
2023-05-20T09:36:04.770Z,52.00
2023-05-20T09:38:38.063Z,52.06
2023-05-20T09:41:13.121Z,51.65
2023-05-20T09:43:40.857Z,51.18
2023-05-20T09:46:08.690Z,50.66
2023-05-20T09:48:39.959Z,50.65
2023-05-20T09:51:08.046Z,50.15
2023-05-20T09:53:36.148Z,50.02
2023-05-20T09:56:04.172Z,49.72
2023-05-20T09:58:33.910Z,49.44
2023-05-20T10:01:01.925Z,50.41
2023-05-20T10:03:30.047Z,50.39
2023-05-20T10:06:20.425Z,49.90
2023-05-20T10:09:12.977Z,49.16
2023-05-20T10:12:04.942Z,49.76
2023-05-20T10:14:57.599Z,50.08
2023-05-20T10:17:43.807Z,50.04
2023-05-20T10:20:13.921Z,49.52
2023-05-20T10:22:41.279Z,48.84
2023-05-20T10:25:12.998Z,48.03
2023-05-20T10:27:47.445Z,47.59
2023-05-20T10:30:19.922Z,47.43
2023-05-20T10:33:00.722Z,47.65
2023-05-20T10:35:28.771Z,47.46
2023-05-20T10:38:08.334Z,47.58
2023-05-20T10:40:36.345Z,46.18
2023-05-20T10:43:11.698Z,46.26
2023-05-20T10:45:52.991Z,45.88
2023-05-20T10:48:25.496Z,46.33
2023-05-20T10:51:06.145Z,45.37
2023-05-20T10:53:41.164Z,45.53
2023-05-20T10:56:18.996Z,45.63
2023-05-20T10:58:46.638Z,46.12
2023-05-20T11:01:14.609Z,45.94
2023-05-20T11:03:44.073Z,45.86
2023-05-20T11:06:17.569Z,45.49
2023-05-20T11:08:46.339Z,44.23
2023-05-20T11:11:15.383Z,44.44
2023-05-20T11:13:42.782Z,44.86
2023-05-20T11:16:10.231Z,44.40
2023-05-20T11:18:37.479Z,45.00
2023-05-20T11:21:04.831Z,43.41
2023-05-20T11:23:32.378Z,42.50
2023-05-20T11:25:59.816Z,41.83
2023-05-20T11:28:27.292Z,41.87
2023-05-20T11:30:55.421Z,41.05
2023-05-20T11:33:26.653Z,40.41
2023-05-20T11:35:54.402Z,40.80
2023-05-20T11:38:22.047Z,40.10
2023-05-20T11:40:54.433Z,40.47
2023-05-20T11:43:23.554Z,39.98
2023-05-20T11:45:56.200Z,39.76
2023-05-20T11:48:24.045Z,40.18
2023-05-20T11:50:53.688Z,40.26
2023-05-20T11:53:22.786Z,41.38
2023-05-20T11:55:55.355Z,41.75
2023-05-20T11:58:24.467Z,41.01
2023-05-20T12:00:59.142Z,40.68
2023-05-20T12:03:29.713Z,40.01
2023-05-20T12:05:57.081Z,40.24
2023-05-20T12:08:24.547Z,40.09
2023-05-20T12:10:52.040Z,40.44
2023-05-20T12:13:19.603Z,40.49
2023-05-20T12:15:47.185Z,40.65
2023-05-20T12:18:14.721Z,40.73
2023-05-20T12:20:42.924Z,41.18
2023-05-20T12:23:10.441Z,40.49
2023-05-20T12:25:37.779Z,41.06
2023-05-20T12:28:05.276Z,40.31
2023-05-20T12:30:32.803Z,40.62
2023-05-20T12:33:00.259Z,40.10
2023-05-20T12:35:46.809Z,40.91
2023-05-20T12:38:14.114Z,40.66
2023-05-20T12:40:41.438Z,41.70
2023-05-20T12:43:09.249Z,41.90
2023-05-20T12:45:36.524Z,41.36
2023-05-20T12:48:04.863Z,41.59
2023-05-20T12:50:32.292Z,41.06
2023-05-20T12:52:59.937Z,40.92
2023-05-20T12:55:27.389Z,40.88
2023-05-20T12:57:56.293Z,40.57
2023-05-20T13:00:23.710Z,40.83
2023-05-20T13:02:52.443Z,41.33
2023-05-20T13:05:20.479Z,41.20
2023-05-20T13:07:49.039Z,41.22
2023-05-20T13:10:17.921Z,41.08
2023-05-20T13:12:46.045Z,41.00
2023-05-20T13:15:14.674Z,41.45
2023-05-20T13:17:42.762Z,40.87
2023-05-20T13:20:11.078Z,40.41
2023-05-20T13:22:38.457Z,40.79
2023-05-20T13:25:06.716Z,41.07
2023-05-20T13:27:33.983Z,41.19
2023-05-20T13:30:01.909Z,41.36
2023-05-20T13:32:29.245Z,41.58
2023-05-20T13:34:57.105Z,40.96
2023-05-20T13:37:24.458Z,41.21
2023-05-20T13:39:51.889Z,41.30
2023-05-20T13:42:19.261Z,40.90
2023-05-20T13:44:46.838Z,41.13
2023-05-20T13:47:14.238Z,41.54
2023-05-20T13:49:41.573Z,41.96
2023-05-20T13:52:09.210Z,41.71
2023-05-20T13:54:36.745Z,42.17
2023-05-20T13:57:08.090Z,42.10
2023-05-20T13:59:35.512Z,42.13
2023-05-20T14:02:03.163Z,42.16
2023-05-20T14:04:39.403Z,41.97
2023-05-20T14:07:09.362Z,41.42
2023-05-20T14:09:37.333Z,41.53
2023-05-20T14:12:05.805Z,41.02
2023-05-20T14:14:33.216Z,41.79
2023-05-20T14:17:00.476Z,42.08
2023-05-20T14:19:27.798Z,42.24
2023-05-20T14:21:55.296Z,42.45
2023-05-20T14:24:23.773Z,42.76
2023-05-20T14:26:51.329Z,43.14
2023-05-20T14:29:18.786Z,42.42
2023-05-20T14:31:46.380Z,42.38
2023-05-20T14:34:13.854Z,43.27
2023-05-20T14:36:41.205Z,43.13
2023-05-20T14:39:08.498Z,43.11
2023-05-20T14:41:36.728Z,42.97
2023-05-20T14:44:04.059Z,42.75
2023-05-20T14:46:31.597Z,42.26
2023-05-20T14:48:58.845Z,43.20
2023-05-20T14:51:26.300Z,43.75
2023-05-20T14:53:53.767Z,43.57
2023-05-20T14:56:21.622Z,43.45
2023-05-20T14:58:48.887Z,43.29
2023-05-20T15:01:16.272Z,42.99
2023-05-20T15:03:43.663Z,42.40
2023-05-20T15:06:11.070Z,42.20
2023-05-20T15:08:38.521Z,42.61
2023-05-20T15:11:05.812Z,43.01
2023-05-20T15:13:33.093Z,42.60
2023-05-20T15:16:00.593Z,42.58
2023-05-20T15:18:27.893Z,42.97
2023-05-20T15:20:55.394Z,43.52
2023-05-20T15:23:22.715Z,43.31
2023-05-20T15:25:50.390Z,42.81
2023-05-20T15:28:19.773Z,42.75
2023-05-20T15:30:53.081Z,43.40
2023-05-20T15:33:21.346Z,43.71
2023-05-20T15:35:49.103Z,44.04
2023-05-20T15:38:17.542Z,43.53
2023-05-20T15:40:44.882Z,43.96
2023-05-20T15:43:12.110Z,43.79
2023-05-20T15:45:39.405Z,43.83
2023-05-20T15:48:07.198Z,44.08
2023-05-20T15:50:38.078Z,44.27
2023-05-20T15:53:09.552Z,43.44
2023-05-20T15:55:36.863Z,43.55
2023-05-20T15:58:04.308Z,43.75
2023-05-20T16:00:31.721Z,43.96
2023-05-20T16:02:59.357Z,44.37
2023-05-20T16:05:26.914Z,43.33
2023-05-20T16:07:55.208Z,43.58
2023-05-20T16:10:25.317Z,43.40
2023-05-20T16:12:53.416Z,43.38
2023-05-20T16:15:21.008Z,43.08
2023-05-20T16:17:48.394Z,42.47
2023-05-20T16:20:15.790Z,43.13
2023-05-20T16:22:43.081Z,43.68
2023-05-20T16:25:14.231Z,43.85
2023-05-20T16:27:41.582Z,44.16
2023-05-20T16:30:09.613Z,43.98
2023-05-20T16:32:37.075Z,43.44
2023-05-20T16:35:05.308Z,43.74
2023-05-20T16:37:33.054Z,43.43
2023-05-20T16:40:00.675Z,43.78
2023-05-20T16:42:28.130Z,44.10
2023-05-20T16:44:55.636Z,43.55
2023-05-20T16:47:22.928Z,44.14
2023-05-20T16:49:50.187Z,43.91
2023-05-20T16:52:17.623Z,43.33
2023-05-20T16:54:45.068Z,43.88
2023-05-20T16:57:14.105Z,44.23
2023-05-20T16:59:41.858Z,44.05
2023-05-20T17:02:09.107Z,43.82
2023-05-20T17:04:36.786Z,44.60
2023-05-20T17:07:04.246Z,44.20
2023-05-20T17:09:31.581Z,44.47
2023-05-20T17:11:58.845Z,44.80
2023-05-20T17:14:26.148Z,44.59
2023-05-20T17:16:53.528Z,44.67
2023-05-20T17:19:21.102Z,44.68
2023-05-20T17:21:48.627Z,44.57
2023-05-20T17:24:16.093Z,44.99
2023-05-20T17:26:43.437Z,44.85
2023-05-20T17:29:10.929Z,44.69
2023-05-20T17:31:38.330Z,44.86
2023-05-20T17:34:05.801Z,45.10
2023-05-20T17:36:33.128Z,45.39
2023-05-20T17:39:00.767Z,45.27
2023-05-20T17:41:28.155Z,44.77
2023-05-20T17:43:55.596Z,45.18
2023-05-20T17:46:23.148Z,45.08
2023-05-20T17:48:50.592Z,44.95
2023-05-20T17:51:17.884Z,44.81
2023-05-20T17:53:45.736Z,45.21
2023-05-20T17:56:13.580Z,45.62
2023-05-20T17:58:41.038Z,44.84
2023-05-20T18:01:09.710Z,45.12
2023-05-20T18:03:37.499Z,45.68
2023-05-20T18:06:06.168Z,46.03
2023-05-20T18:08:33.931Z,45.64
2023-05-20T18:11:01.521Z,45.88
2023-05-20T18:13:28.899Z,45.79
2023-05-20T18:15:56.386Z,45.83
2023-05-20T18:18:23.784Z,46.46
2023-05-20T18:20:51.058Z,46.74
2023-05-20T18:23:18.375Z,46.90
2023-05-20T18:25:45.856Z,46.64
2023-05-20T18:28:13.417Z,46.60
2023-05-20T18:30:40.899Z,46.58
2023-05-20T18:33:08.287Z,46.48
2023-05-20T18:35:35.599Z,47.30
2023-05-20T18:38:02.978Z,47.40
2023-05-20T18:40:30.459Z,47.42
2023-05-20T18:42:58.324Z,48.24
2023-05-20T18:45:26.008Z,48.51
2023-05-20T18:47:54.402Z,48.66
2023-05-20T18:50:21.893Z,48.54
2023-05-20T18:52:49.217Z,48.25
2023-05-20T18:55:16.880Z,48.63
2023-05-20T18:57:44.192Z,47.92
2023-05-20T19:00:12.639Z,47.99
2023-05-20T19:02:40.585Z,48.43
2023-05-20T19:05:08.872Z,49.09
2023-05-20T19:07:36.987Z,49.33
2023-05-20T19:10:05.441Z,49.49
2023-05-20T19:12:33.548Z,49.11
2023-05-20T19:15:01.431Z,49.05
2023-05-20T19:17:29.606Z,49.70
2023-05-20T19:19:57.141Z,49.04
2023-05-20T19:22:24.482Z,48.80
2023-05-20T19:24:51.839Z,49.36
2023-05-20T19:27:19.140Z,49.37
2023-05-20T19:29:46.650Z,49.47
2023-05-20T19:32:14.064Z,49.35
2023-05-20T19:34:41.321Z,49.86
2023-05-20T19:37:08.749Z,50.10
2023-05-20T19:39:36.402Z,50.30
2023-05-20T19:42:03.982Z,50.00
2023-05-20T19:44:31.235Z,50.87
2023-05-20T19:46:58.599Z,51.13
2023-05-20T19:49:26.064Z,50.55
2023-05-20T19:51:53.413Z,50.56
2023-05-20T19:54:20.989Z,50.99
2023-05-20T19:56:48.300Z,51.26
2023-05-20T19:59:15.935Z,51.55
2023-05-20T20:01:43.305Z,51.69
2023-05-20T20:04:10.704Z,51.75
2023-05-20T20:06:38.222Z,51.30
2023-05-20T20:09:05.771Z,52.17
2023-05-20T20:11:33.084Z,51.86
2023-05-20T20:14:00.391Z,51.50
2023-05-20T20:16:27.744Z,50.89
2023-05-20T20:18:55.248Z,50.92
2023-05-20T20:21:25.748Z,51.50
2023-05-20T20:23:53.391Z,51.48
2023-05-20T20:26:23.567Z,51.43
2023-05-20T20:28:50.776Z,52.24
2023-05-20T20:31:18.081Z,52.92
2023-05-20T20:33:45.502Z,53.53
2023-05-20T20:36:12.753Z,53.35
2023-05-20T20:38:40.115Z,53.22
2023-05-20T20:41:09.573Z,53.97
2023-05-20T20:43:38.229Z,54.02
2023-05-20T20:46:06.366Z,53.75
2023-05-20T20:48:34.556Z,54.25
2023-05-20T20:51:02.103Z,54.27
2023-05-20T20:53:29.462Z,54.10
2023-05-20T20:55:57.027Z,54.41
2023-05-20T20:58:24.454Z,54.17
2023-05-20T21:00:53.119Z,53.92
2023-05-20T21:03:23.979Z,54.21
2023-05-20T21:05:51.835Z,54.50
2023-05-20T21:08:22.047Z,54.02
2023-05-20T21:10:49.252Z,54.16
2023-05-20T21:13:16.472Z,55.06
2023-05-20T21:15:46.403Z,54.94
2023-05-20T21:18:16.530Z,54.58
2023-05-20T21:20:43.795Z,54.79
2023-05-20T21:23:11.391Z,54.77
2023-05-20T21:25:38.773Z,54.83
2023-05-20T21:28:06.520Z,54.77
2023-05-20T21:30:33.801Z,55.19
2023-05-20T21:33:01.149Z,55.35
2023-05-20T21:35:28.482Z,55.60
2023-05-20T21:37:55.820Z,55.17
2023-05-20T21:40:23.230Z,55.88
2023-05-20T21:42:50.755Z,55.21
2023-05-20T21:45:18.536Z,55.72
2023-05-20T21:47:46.434Z,55.71
2023-05-20T21:50:13.877Z,55.08
2023-05-20T21:52:41.551Z,56.04
2023-05-20T21:55:12.075Z,56.93
2023-05-20T21:57:39.421Z,58.21
2023-05-20T22:00:10.457Z,59.00
2023-05-20T22:02:38.175Z,59.53
2023-05-20T22:05:06.575Z,59.74
2023-05-20T22:07:33.993Z,60.71
2023-05-20T22:10:02.367Z,61.38
2023-05-20T22:12:29.826Z,60.98
2023-05-20T22:14:57.100Z,61.96
2023-05-20T22:17:24.868Z,62.17
2023-05-20T22:19:53.577Z,61.76
2023-05-20T22:22:20.846Z,61.83
2023-05-20T22:24:48.126Z,62.05
2023-05-20T22:27:15.446Z,62.10
2023-05-20T22:29:42.796Z,62.14
2023-05-20T22:32:10.106Z,63.13
2023-05-20T22:34:38.513Z,63.19
2023-05-20T22:37:07.090Z,62.64
2023-05-20T22:39:34.488Z,63.19
2023-05-20T22:42:01.710Z,63.56
2023-05-20T22:44:28.987Z,64.08
2023-05-20T22:46:56.435Z,64.39
2023-05-20T22:49:23.912Z,63.63
2023-05-20T22:51:52.840Z,63.84
2023-05-20T22:54:20.162Z,64.20
2023-05-20T22:56:47.450Z,64.30
2023-05-20T22:59:14.876Z,64.50
2023-05-20T23:01:42.300Z,64.94
2023-05-20T23:04:09.794Z,64.12
2023-05-20T23:06:38.254Z,63.16
2023-05-20T23:09:06.172Z,63.10
2023-05-20T23:11:33.472Z,62.52
2023-05-20T23:14:00.886Z,64.53
2023-05-20T23:16:29.551Z,64.64
2023-05-20T23:18:56.946Z,64.52
2023-05-20T23:21:24.274Z,63.98
2023-05-20T23:23:51.705Z,64.46
2023-05-20T23:26:19.014Z,64.89
2023-05-20T23:28:46.261Z,65.71
2023-05-20T23:31:14.798Z,65.67
2023-05-20T23:33:42.177Z,65.29
2023-05-20T23:36:09.643Z,66.15
2023-05-20T23:38:37.470Z,65.73
2023-05-20T23:41:04.912Z,65.00
2023-05-20T23:43:32.131Z,66.12
2023-05-20T23:45:59.542Z,66.12
2023-05-20T23:48:27.674Z,66.04
2023-05-20T23:50:55.064Z,65.74
2023-05-20T23:53:22.890Z,65.62
2023-05-20T23:55:50.281Z,65.94
2023-05-20T23:58:17.613Z,66.38
